KEVV/EVV METAR and TAF weather

Enter ICAO airport designator
Station Type Date Time Source
KEVV METAR 2021/05/12 00:54 UTC NOAA

KEVV 120054Z 02008KT 10SM OVC110 13/01 A3026 RMK AO2 SLP247 T01330011


Station Type Date Time Source
KEVV Decoded METAR 2021/05/12 00:54 UTC NOAA

EVANSVILLE REGIONAL, IN, United States (KEVV) 38-02N 087-32W 117M
May 11, 2021 - 08:54 PM EDT / 2021.05.12 0054 UTC
Wind: from the NNE (020 degrees) at 9 MPH (8 KT):0
Visibility: 10 mile(s):0
Sky conditions: overcast
Temperature: 55.9 F (13.3 C)
Dew Point: 34.0 F (1.1 C)
Relative Humidity: 43%
Pressure (altimeter): 30.26 in. Hg (1024 hPa)
ob: KEVV 120054Z 02008KT 10SM OVC110 13/01 A3026 RMK AO2 SLP247 T01330011
cycle: 1

Station Type Date Time Source
KEVV TAF 2021/05/11 18:24 UTC NOAA

TAF KEVV 111721Z 1118/1218 04009G16KT P6SM SCT035 SCT120
FM112300 03009KT P6SM BKN100
FM121500 05015G21KT P6SM BKN100

Example: see airport list